createdAt,value
2022-10-11T00:16:32.912Z,13.75
2022-10-11T00:45:33.416Z,13.97
2022-10-11T01:14:20.287Z,14.23
2022-10-11T01:43:10.004Z,14.11
2022-10-11T02:11:59.562Z,14.11
2022-10-11T02:40:54.304Z,14.06
2022-10-11T03:09:48.637Z,13.91
2022-10-11T03:38:26.133Z,13.62
2022-10-11T04:07:12.620Z,13.49
2022-10-11T04:36:09.127Z,13.63
2022-10-11T05:04:37.884Z,13.72
2022-10-11T05:33:14.616Z,13.55
2022-10-11T06:01:47.284Z,13.53
2022-10-11T06:30:18.862Z,13.18
2022-10-11T06:58:54.789Z,12.99
2022-10-11T07:27:28.974Z,13.06
2022-10-11T07:56:05.300Z,13.68
2022-10-11T08:24:40.301Z,14.29
2022-10-11T08:53:36.887Z,14.39
2022-10-11T09:22:20.036Z,14.37
2022-10-11T09:50:52.648Z,14.44
2022-10-11T10:19:31.510Z,15.44
2022-10-11T10:48:10.837Z,15.48
2022-10-11T11:17:09.420Z,15.91
2022-10-11T11:45:48.409Z,16.34
2022-10-11T12:13:59.379Z,16.57
2022-10-11T12:42:40.764Z,16.6
2022-10-11T13:11:17.391Z,16.59
2022-10-11T13:40:02.140Z,16.71
2022-10-11T14:08:21.329Z,16.61
2022-10-11T14:36:56.081Z,16.34
2022-10-11T15:05:34.657Z,15.97
2022-10-11T15:33:44.555Z,15.97
2022-10-11T16:02:15.055Z,15.58
2022-10-11T16:30:43.443Z,15.29
2022-10-11T16:59:23.539Z,15.1
2022-10-11T17:28:09.988Z,14.88
2022-10-11T17:56:53.873Z,14.58
2022-10-11T18:25:33.626Z,14.77
2022-10-11T18:54:21.838Z,14.61
2022-10-11T19:22:40.322Z,14.54
2022-10-11T19:51:27.923Z,14.11
2022-10-11T20:19:59.018Z,13.7
2022-10-11T20:51:10.246Z,13.1
2022-10-11T21:22:15.167Z,13.01
